Time;durP1;ratioP1;P1;durP2;ratioP2;P2;SDS_P1;SDS_P2;PMS_P1;PMS_P2;Temp;Humidity;BMP_temperature;BMP_pressure;BME280_temperature;BME280_humidity;BME280_pressure;Samples;Min_cycle;Max_cycle;Signal;HPM_P1;HPM_P2
2021/12/30 00:01:56;;;;;;;;;;;;;;;9.79;49.45;99424.34;4456596;32;33593;-81
2021/12/30 00:04:24;;;;;;;;;;;;;;;9.94;49.19;99430.31;4467421;32;33757;-77
2021/12/30 00:06:51;;;;;;;;;;;;;;;10.22;47.56;99426.38;4466102;32;33515;-75
2021/12/30 00:09:20;;;;;;;;;;;;;;;10.07;48.34;99432.91;4469289;32;34179;-76
2021/12/30 00:11:48;;;;;;;;;;;;;;;10.13;48.56;99429.75;4471477;32;34221;-76
2021/12/30 00:14:36;;;;;;;;;;;;;;;9.97;49.03;99435.44;4469736;31;34289;-77
2021/12/30 00:17:03;;;;;;;;;;;;;;;10.25;47.85;99442.19;4464122;32;33344;-76
2021/12/30 00:19:31;;;;;;;;;;;;;;;10.20;48.19;99448.84;4463839;32;34245;-75
2021/12/30 00:21:58;;;;;;;;;;;;;;;9.78;49.55;99448.50;4467009;32;32694;-77
2021/12/30 00:24:26;;;;;;;;;;;;;;;9.86;49.49;99451.47;4466609;31;34274;-77
2021/12/30 00:26:53;;;;;;;;;;;;;;;10.26;48.24;99449.25;4475218;32;33244;-77
2021/12/30 00:29:21;;;;;;;;;;;;;;;10.13;48.63;99447.63;4470610;32;34204;-77
2021/12/30 00:31:49;;;;;;;;;;;;;;;10.18;48.13;99456.16;4472819;32;33451;-76
2021/12/30 00:34:16;;;;;;;;;;;;;;;10.36;47.99;99470.78;4473664;32;35035;-78
2021/12/30 00:36:44;;;;;;;;;;;;;;;10.44;47.78;99464.84;4439356;32;861027;-78
2021/12/30 00:39:12;;;;;;;;;;;;;;;10.50;47.58;99472.41;4467054;32;35077;-76
2021/12/30 00:41:39;;;;;;;;;;;;;;;10.06;48.51;99468.66;4471102;32;34019;-78
2021/12/30 00:44:06;;;;;;;;;;;;;;;10.23;48.56;99475.34;4464384;32;33262;-81
2021/12/30 00:46:34;;;;;;;;;;;;;;;10.32;48.21;99472.00;4449556;32;34918;-81
2021/12/30 00:49:02;;;;;;;;;;;;;;;10.21;48.45;99478.16;4470941;32;35660;-82
2021/12/30 00:51:29;;;;;;;;;;;;;;;10.39;48.10;99481.25;4456207;32;34435;-80
2021/12/30 00:53:57;;;;;;;;;;;;;;;10.14;48.79;99489.44;4473116;32;33944;-82
2021/12/30 00:56:24;;;;;;;;;;;;;;;10.18;48.63;99494.44;4462197;32;33008;-80
2021/12/30 00:58:52;;;;;;;;;;;;;;;10.39;48.13;99491.09;4458998;32;34192;-83
2021/12/30 01:01:19;;;;;;;;;;;;;;;10.00;49.17;99510.06;4467341;32;33043;-80
2021/12/30 01:03:47;;;;;;;;;;;;;;;10.36;48.37;99502.03;4466455;32;32043;-79
2021/12/30 01:06:14;;;;;;;;;;;;;;;10.58;47.71;99506.56;4475440;32;33387;-79
2021/12/30 01:08:42;;;;;;;;;;;;;;;10.53;47.97;99503.38;4478143;31;32664;-79
2021/12/30 01:11:10;;;;;;;;;;;;;;;10.55;47.72;99504.97;4469580;32;35193;-80
2021/12/30 01:13:40;;;;;;;;;;;;;;;10.18;48.79;99501.62;4470195;32;32849;-79
2021/12/30 01:16:16;;;;;;;;;;;;;;;10.29;48.58;99501.66;4461064;32;33372;-80
2021/12/30 01:21:31;;;;;;;;;;;;;;;10.16;48.82;99503.56;4467900;32;34500;-79
2021/12/30 01:23:59;;;;;;;;;;;;;;;10.42;48.22;99512.25;4456542;32;33876;-80
2021/12/30 01:26:26;;;;;;;;;;;;;;;10.48;48.05;99514.47;4466697;32;32370;-81
2021/12/30 01:28:54;;;;;;;;;;;;;;;10.62;47.45;99518.72;4473334;32;34323;-80
2021/12/30 01:31:22;;;;;;;;;;;;;;;10.58;47.66;99515.44;4472094;32;33715;-80
2021/12/30 01:34:09;;;;;;;;;;;;;;;10.28;48.59;99520.53;4472798;32;34940;-75
2021/12/30 01:36:37;;;;;;;;;;;;;;;10.48;48.14;99517.16;4475520;32;33557;-74
2021/12/30 01:39:04;;;;;;;;;;;;;;;10.29;48.55;99523.06;4471891;32;33110;-78
2021/12/30 01:41:32;;;;;;;;;;;;;;;10.64;47.44;99523.00;4465145;32;35316;-76
2021/12/30 01:43:59;;;;;;;;;;;;;;;10.73;47.18;99522.28;4469602;32;34362;-80
2021/12/30 01:46:35;;;;;;;;;;;;;;;10.70;47.17;99525.19;4472572;32;32207;-77
2021/12/30 01:49:03;;;;;;;;;;;;;;;10.67;47.15;99520.06;4471550;32;34163;-79
2021/12/30 01:51:30;;;;;;;;;;;;;;;10.54;47.83;99524.69;4465713;32;34070;-77
2021/12/30 01:53:58;;;;;;;;;;;;;;;10.59;47.24;99529.66;4466354;32;35089;-78
2021/12/30 01:56:25;;;;;;;;;;;;;;;10.33;48.28;99537.91;4470982;31;32444;-79
2021/12/30 01:58:54;;;;;;;;;;;;;;;10.08;49.13;99536.25;4466080;32;34266;-76
2021/12/30 02:01:21;;;;;;;;;;;;;;;10.46;48.09;99529.78;4466905;32;35351;-76
2021/12/30 02:03:49;;;;;;;;;;;;;;;10.62;47.37;99521.41;4475651;32;34268;-75
2021/12/30 02:06:17;;;;;;;;;;;;;;;10.48;47.84;99517.16;4469650;32;34179;-80
2021/12/30 02:08:44;;;;;;;;;;;;;;;10.28;48.33;99524.03;4469814;32;34286;-76
2021/12/30 02:11:11;;;;;;;;;;;;;;;10.34;48.22;99520.91;4471935;32;33089;-76
2021/12/30 02:13:39;;;;;;;;;;;;;;;10.11;48.67;99530.66;4480156;31;32800;-75
2021/12/30 02:16:06;;;;;;;;;;;;;;;10.29;48.30;99522.22;4471430;32;33465;-75
2021/12/30 02:18:33;;;;;;;;;;;;;;;10.41;48.04;99521.28;4468810;32;34175;-76
2021/12/30 02:21:01;;;;;;;;;;;;;;;10.33;48.21;99521.84;4467036;32;35382;-75
2021/12/30 02:23:29;;;;;;;;;;;;;;;10.46;47.99;99525.31;4471965;32;34974;-76
2021/12/30 02:25:58;;;;;;;;;;;;;;;10.26;48.71;99528.66;4477000;32;33726;-76
2021/12/30 02:28:27;;;;;;;;;;;;;;;10.40;48.10;99527.56;4476105;31;33942;-78
2021/12/30 02:30:56;;;;;;;;;;;;;;;10.52;47.87;99531.13;4471213;32;35311;-75
2021/12/30 02:33:23;;;;;;;;;;;;;;;10.13;48.98;99535.87;4470177;31;34348;-77
2021/12/30 02:35:51;;;;;;;;;;;;;;;10.49;48.24;99534.88;4472123;32;33115;-77
2021/12/30 02:38:18;;;;;;;;;;;;;;;10.53;48.16;99522.13;4476254;32;32671;-75
2021/12/30 02:40:49;;;;;;;;;;;;;;;10.33;48.34;99527.19;4471831;31;35085;-76
2021/12/30 02:43:18;;;;;;;;;;;;;;;10.33;48.60;99516.50;4466537;32;34445;-75
2021/12/30 02:45:45;;;;;;;;;;;;;;;10.29;48.77;99509.69;4467029;32;33408;-74
2021/12/30 02:48:14;;;;;;;;;;;;;;;9.99;49.50;99503.03;4467931;32;33922;-74
2021/12/30 02:50:42;;;;;;;;;;;;;;;10.10;49.58;99504.03;4470923;32;34093;-75
2021/12/30 02:53:10;;;;;;;;;;;;;;;9.71;50.74;99514.94;4468472;32;33773;-75
2021/12/30 02:55:38;;;;;;;;;;;;;;;10.44;48.72;99527.22;4470062;32;32971;-74
2021/12/30 02:58:06;;;;;;;;;;;;;;;10.25;49.41;99518.91;4469753;32;34147;-74
2021/12/30 03:00:33;;;;;;;;;;;;;;;10.46;48.84;99517.28;4469822;31;34825;-75
2021/12/30 03:03:01;;;;;;;;;;;;;;;10.32;49.20;99519.31;4472690;32;34715;-75
2021/12/30 03:05:28;;;;;;;;;;;;;;;10.29;49.19;99530.25;4469375;32;33464;-74
2021/12/30 03:07:56;;;;;;;;;;;;;;;10.61;48.31;99522.38;4463163;32;33881;-76
2021/12/30 03:10:25;;;;;;;;;;;;;;;10.71;48.02;99531.41;4471037;32;34407;-74
2021/12/30 03:12:56;;;;;;;;;;;;;;;11.03;47.04;99538.69;4468439;32;34505;-74
2021/12/30 03:15:27;;;;;;;;;;;;;;;11.21;46.74;99531.03;4470249;32;33132;-76
2021/12/30 03:17:54;;;;;;;;;;;;;;;11.09;47.12;99530.19;4473607;32;34349;-73
2021/12/30 03:20:21;;;;;;;;;;;;;;;11.25;46.72;99536.00;4470591;32;33795;-73
2021/12/30 03:22:48;;;;;;;;;;;;;;;11.17;46.94;99535.75;4472883;31;34123;-76
2021/12/30 03:25:16;;;;;;;;;;;;;;;11.27;46.58;99534.06;4468844;32;34056;-74
2021/12/30 03:27:44;;;;;;;;;;;;;;;11.23;46.67;99532.59;4468616;31;34937;-74
2021/12/30 03:30:12;;;;;;;;;;;;;;;11.55;45.70;99537.16;4467217;32;34022;-74
2021/12/30 03:32:40;;;;;;;;;;;;;;;11.28;46.53;99538.44;4472815;32;34251;-75
2021/12/30 03:35:08;;;;;;;;;;;;;;;11.20;46.60;99538.19;4471224;32;33648;-75
2021/12/30 03:37:36;;;;;;;;;;;;;;;11.11;47.00;99542.47;4466140;32;33974;-75
2021/12/30 03:40:04;;;;;;;;;;;;;;;11.03;46.86;99538.69;4470498;31;35394;-79
2021/12/30 03:42:32;;;;;;;;;;;;;;;10.91;47.41;99538.72;4464718;32;34267;-77
2021/12/30 03:45:02;;;;;;;;;;;;;;;11.26;46.64;99543.06;4462837;32;33204;-76
2021/12/30 03:47:30;;;;;;;;;;;;;;;10.10;49.36;99544.97;4473331;32;35078;-75
2021/12/30 03:49:57;;;;;;;;;;;;;;;10.90;47.08;99549.53;4475534;31;34461;-75
2021/12/30 03:52:30;;;;;;;;;;;;;;;9.52;50.42;99554.69;4472791;32;34271;-75
2021/12/30 03:54:57;;;;;;;;;;;;;;;9.57;50.36;99561.41;4470626;32;33818;-74
2021/12/30 03:57:24;;;;;;;;;;;;;;;10.04;49.52;99572.19;4465493;32;34331;-75
2021/12/30 03:59:52;;;;;;;;;;;;;;;9.70;50.39;99569.38;4469539;32;35213;-75
2021/12/30 04:02:19;;;;;;;;;;;;;;;9.82;49.70;99559.56;4466577;32;34373;-76
2021/12/30 04:04:47;;;;;;;;;;;;;;;8.05;55.01;99584.50;4471791;32;33759;-75
2021/12/30 04:07:15;;;;;;;;;;;;;;;8.79;53.43;99569.66;4472090;31;34046;-73
2021/12/30 04:09:42;;;;;;;;;;;;;;;8.63;53.96;99559.25;4473144;32;35370;-75
2021/12/30 04:12:10;;;;;;;;;;;;;;;7.49;56.89;99565.13;4468456;31;34081;-74
2021/12/30 04:14:38;;;;;;;;;;;;;;;8.38;54.93;99583.25;4469413;32;32339;-75
2021/12/30 04:17:05;;;;;;;;;;;;;;;8.12;55.31;99587.59;4468323;32;34066;-74
2021/12/30 04:19:33;;;;;;;;;;;;;;;8.39;54.79;99579.59;4470158;32;34064;-76
2021/12/30 04:22:00;;;;;;;;;;;;;;;8.81;53.62;99589.09;4472911;31;35049;-82
2021/12/30 04:24:28;;;;;;;;;;;;;;;7.69;57.35;99593.97;4469878;32;32194;-79
2021/12/30 04:26:55;;;;;;;;;;;;;;;8.04;56.29;99601.47;4460008;32;33337;-79
2021/12/30 04:29:23;;;;;;;;;;;;;;;8.24;56.05;99616.12;4469987;32;34102;-79
2021/12/30 04:31:51;;;;;;;;;;;;;;;8.44;55.44;99612.13;4456284;32;33923;-77
2021/12/30 04:34:18;;;;;;;;;;;;;;;8.40;55.52;99615.97;4461275;32;33412;-81
2021/12/30 04:36:46;;;;;;;;;;;;;;;8.30;55.45;99610.38;4474630;32;33843;-77
2021/12/30 04:39:13;;;;;;;;;;;;;;;8.89;54.32;99612.59;4466434;32;33185;-77
2021/12/30 04:41:41;;;;;;;;;;;;;;;9.06;53.37;99612.28;4471951;32;34823;-77
2021/12/30 04:44:08;;;;;;;;;;;;;;;10.07;50.68;99621.91;4466761;32;33531;-78
2021/12/30 04:46:37;;;;;;;;;;;;;;;10.28;50.22;99643.56;4472897;32;34194;-74
2021/12/30 04:49:05;;;;;;;;;;;;;;;10.69;49.04;99637.75;4468680;32;34454;-77
2021/12/30 04:51:32;;;;;;;;;;;;;;;10.83;48.75;99637.53;4466786;32;33719;-74
2021/12/30 04:53:59;;;;;;;;;;;;;;;11.07;47.85;99639.25;4471389;32;33085;-76
2021/12/30 04:56:27;;;;;;;;;;;;;;;11.07;48.15;99641.94;4468992;32;33972;-75
2021/12/30 04:58:54;;;;;;;;;;;;;;;10.81;48.73;99642.13;4470019;32;34041;-75
2021/12/30 05:01:21;;;;;;;;;;;;;;;10.62;49.04;99666.78;4462867;32;34150;-75
2021/12/30 05:03:49;;;;;;;;;;;;;;;11.09;47.35;99672.97;4464552;32;33509;-74
2021/12/30 05:06:17;;;;;;;;;;;;;;;10.92;47.39;99674.31;4471188;32;34713;-75
2021/12/30 05:08:44;;;;;;;;;;;;;;;10.43;49.22;99683.41;4470228;32;35440;-73
2021/12/30 05:11:11;;;;;;;;;;;;;;;10.64;49.21;99688.09;4471160;32;33820;-75
2021/12/30 05:13:39;;;;;;;;;;;;;;;10.94;48.29;99707.16;4467980;32;34280;-75
2021/12/30 05:16:06;;;;;;;;;;;;;;;10.92;48.24;99722.50;4473169;32;34287;-75
2021/12/30 05:18:36;;;;;;;;;;;;;;;11.34;47.16;99725.50;4472606;32;35327;-75
2021/12/30 05:21:04;;;;;;;;;;;;;;;11.53;46.72;99721.38;4467521;32;33932;-75
2021/12/30 05:23:31;;;;;;;;;;;;;;;11.64;46.61;99721.38;4475252;31;34140;-75
2021/12/30 05:25:59;;;;;;;;;;;;;;;11.68;46.24;99725.50;4476626;32;34111;-75
2021/12/30 05:28:26;;;;;;;;;;;;;;;11.75;46.03;99732.13;4468453;31;34406;-75
2021/12/30 05:30:54;;;;;;;;;;;;;;;11.79;46.28;99735.41;4470904;32;33980;-75
2021/12/30 05:33:21;;;;;;;;;;;;;;;11.86;45.65;99737.50;4474074;32;32636;-75
2021/12/30 05:35:48;;;;;;;;;;;;;;;11.87;45.93;99725.78;4468534;32;33820;-75
2021/12/30 05:38:17;;;;;;;;;;;;;;;11.96;45.44;99732.22;4470257;31;35306;-75
2021/12/30 05:40:45;;;;;;;;;;;;;;;11.93;45.59;99734.31;4471409;32;34519;-75
2021/12/30 05:43:12;;;;;;;;;;;;;;;11.97;45.65;99738.44;4472914;32;33386;-76
2021/12/30 05:45:41;;;;;;;;;;;;;;;11.96;45.46;99742.13;4467649;32;34314;-76
2021/12/30 05:48:08;;;;;;;;;;;;;;;11.79;46.15;99746.97;4465839;32;34101;-75
2021/12/30 05:50:36;;;;;;;;;;;;;;;11.91;45.72;99746.97;4479224;31;35590;-74
2021/12/30 05:53:04;;;;;;;;;;;;;;;11.96;45.71;99737.59;4471324;32;33009;-75
2021/12/30 05:55:31;;;;;;;;;;;;;;;11.60;46.95;99742.22;4474337;31;33975;-75
2021/12/30 05:57:58;;;;;;;;;;;;;;;11.65;46.56;99737.34;4474906;32;34105;-75
2021/12/30 06:00:26;;;;;;;;;;;;;;;11.71;46.10;99741.34;4466141;31;35738;-75
2021/12/30 06:02:54;;;;;;;;;;;;;;;11.85;45.52;99737.62;4471602;32;33360;-77
2021/12/30 06:05:22;;;;;;;;;;;;;;;10.48;48.58;99739.25;4473828;31;35076;-75
2021/12/30 06:07:49;;;;;;;;;;;;;;;10.55;49.65;99745.84;4478754;32;34804;-80
2021/12/30 06:10:17;;;;;;;;;;;;;;;10.62;49.19;99763.13;4470081;32;34193;-79
2021/12/30 06:12:46;;;;;;;;;;;;;;;11.37;47.38;99775.34;4472592;32;34234;-76
2021/12/30 06:15:13;;;;;;;;;;;;;;;11.21;47.63;99781.03;4467436;32;34266;-77
2021/12/30 06:17:41;;;;;;;;;;;;;;;11.34;47.52;99780.94;4471422;32;35408;-77
2021/12/30 06:20:10;;;;;;;;;;;;;;;11.12;48.19;99784.41;4464467;32;35077;-77
2021/12/30 06:22:37;;;;;;;;;;;;;;;11.17;47.74;99782.22;4471715;32;33064;-77
2021/12/30 06:25:05;;;;;;;;;;;;;;;11.41;47.09;99774.13;4466320;32;33853;-78
2021/12/30 06:27:32;;;;;;;;;;;;;;;11.61;46.53;99783.28;4471699;32;34140;-80
2021/12/30 06:29:59;;;;;;;;;;;;;;;10.84;47.99;99802.53;4468479;32;34187;-81
2021/12/30 06:32:27;;;;;;;;;;;;;;;10.81;48.93;99804.59;4459576;32;33687;-80
2021/12/30 06:34:54;;;;;;;;;;;;;;;11.05;48.23;99808.13;4470286;32;33929;-80
2021/12/30 06:37:21;;;;;;;;;;;;;;;10.89;48.29;99807.56;4476341;32;34307;-80
2021/12/30 06:39:49;;;;;;;;;;;;;;;11.14;47.80;99811.94;4466686;32;34233;-79
2021/12/30 06:42:16;;;;;;;;;;;;;;;10.85;48.59;99806.97;4471092;32;33180;-78
2021/12/30 06:44:44;;;;;;;;;;;;;;;10.39;48.85;99820.19;4472861;32;32384;-78
2021/12/30 06:47:11;;;;;;;;;;;;;;;11.21;47.59;99831.94;4467700;32;35687;-79
2021/12/30 06:49:39;;;;;;;;;;;;;;;10.60;48.93;99833.84;4470160;32;34186;-78
2021/12/30 06:52:07;;;;;;;;;;;;;;;10.21;50.13;99841.94;4472798;32;34276;-77
2021/12/30 06:54:35;;;;;;;;;;;;;;;10.73;48.75;99843.53;4468414;32;34958;-79
2021/12/30 06:57:03;;;;;;;;;;;;;;;10.93;47.85;99858.09;4477996;32;35392;-79
2021/12/30 06:59:30;;;;;;;;;;;;;;;11.03;48.18;99886.87;4464326;32;34200;-79
2021/12/30 07:01:58;;;;;;;;;;;;;;;11.03;47.52;99890.41;4456609;32;34362;-79
2021/12/30 07:04:26;;;;;;;;;;;;;;;11.59;46.70;99898.69;4458770;32;33943;-80
2021/12/30 07:06:53;;;;;;;;;;;;;;;11.66;45.99;99893.69;4469699;32;34414;-76
2021/12/30 07:09:21;;;;;;;;;;;;;;;11.54;46.44;99881.22;4469288;32;35328;-74
2021/12/30 07:11:49;;;;;;;;;;;;;;;10.22;49.15;99882.91;4468942;32;32188;-74
2021/12/30 07:14:17;;;;;;;;;;;;;;;10.98;48.08;99881.88;4471598;32;32932;-75
2021/12/30 07:16:45;;;;;;;;;;;;;;;11.21;47.44;99880.16;4471583;32;34349;-73
2021/12/30 07:19:13;;;;;;;;;;;;;;;11.27;47.17;99868.09;4472698;32;34333;-77
2021/12/30 07:21:40;;;;;;;;;;;;;;;10.60;48.73;99868.62;4466671;32;33140;-75
2021/12/30 07:24:08;;;;;;;;;;;;;;;10.64;49.00;99880.81;4466065;32;34333;-74
2021/12/30 07:26:37;;;;;;;;;;;;;;;10.93;48.31;99881.34;4471768;32;34057;-77
2021/12/30 07:29:04;;;;;;;;;;;;;;;9.68;50.28;99889.31;4473432;32;34933;-74
2021/12/30 07:31:32;;;;;;;;;;;;;;;10.15;50.28;99892.34;4468614;32;34683;-75
2021/12/30 07:33:59;;;;;;;;;;;;;;;10.40;49.57;99908.38;4471696;32;34306;-74
2021/12/30 07:36:26;;;;;;;;;;;;;;;10.09;50.06;99914.16;4470444;32;33925;-75
2021/12/30 07:38:54;;;;;;;;;;;;;;;10.84;48.53;99915.00;4473984;32;34361;-75
2021/12/30 07:41:21;;;;;;;;;;;;;;;10.57;48.95;99909.00;4463802;32;33563;-73
2021/12/30 07:43:49;;;;;;;;;;;;;;;11.02;48.18;99918.16;4467875;32;34230;-74
2021/12/30 07:46:16;;;;;;;;;;;;;;;10.75;48.66;99925.53;4467881;32;34303;-74
2021/12/30 07:48:44;;;;;;;;;;;;;;;10.54;49.67;99914.56;4474769;31;34168;-75
2021/12/30 07:51:11;;;;;;;;;;;;;;;10.84;48.93;99920.34;4471767;32;33106;-74
2021/12/30 07:53:40;;;;;;;;;;;;;;;10.46;49.21;99921.34;4468003;32;32785;-75
2021/12/30 07:56:07;;;;;;;;;;;;;;;10.87;48.46;99916.59;4472027;32;33274;-74
2021/12/30 07:58:35;;;;;;;;;;;;;;;10.61;49.36;99923.88;4469559;32;33052;-75
2021/12/30 08:01:02;;;;;;;;;;;;;;;11.40;47.11;99922.50;4469378;32;33481;-77
2021/12/30 08:03:30;;;;;;;;;;;;;;;8.86;52.99;99920.62;4466445;32;33777;-75
2021/12/30 08:05:57;;;;;;;;;;;;;;;10.06;50.33;99925.06;4466982;31;34066;-75
2021/12/30 08:08:25;;;;;;;;;;;;;;;9.82;51.48;99928.47;4461570;32;35031;-74
2021/12/30 08:10:53;;;;;;;;;;;;;;;11.08;48.01;99922.22;4466360;32;31897;-76
2021/12/30 08:13:23;;;;;;;;;;;;;;;10.99;48.11;99926.44;4473349;32;34268;-75
2021/12/30 08:15:51;;;;;;;;;;;;;;;10.19;50.75;99926.78;4471554;32;34912;-74
2021/12/30 08:18:18;;;;;;;;;;;;;;;11.58;47.37;99933.63;4454512;32;35778;-74
2021/12/30 08:20:46;;;;;;;;;;;;;;;11.10;47.87;99925.63;4473952;32;33910;-73
2021/12/30 08:23:13;;;;;;;;;;;;;;;11.11;47.75;99930.03;4468141;32;33804;-74
2021/12/30 08:25:41;;;;;;;;;;;;;;;11.60;46.74;99934.38;4471551;32;34202;-74
2021/12/30 08:28:08;;;;;;;;;;;;;;;11.63;46.52;99935.00;4469813;31;34293;-75
2021/12/30 08:30:35;;;;;;;;;;;;;;;10.92;48.20;99935.88;4466410;32;34109;-76
2021/12/30 08:33:03;;;;;;;;;;;;;;;11.33;47.18;99940.87;4468408;32;34268;-74
2021/12/30 08:35:30;;;;;;;;;;;;;;;11.95;46.05;99941.59;4470879;32;33781;-76
2021/12/30 08:37:59;;;;;;;;;;;;;;;12.10;45.14;99951.09;4474931;31;34303;-75
2021/12/30 08:40:26;;;;;;;;;;;;;;;12.41;44.58;99944.19;4467304;32;32041;-75
2021/12/30 08:42:54;;;;;;;;;;;;;;;12.48;44.61;99945.41;4462658;32;34231;-76
2021/12/30 08:45:21;;;;;;;;;;;;;;;12.35;44.67;99937.47;4470807;32;35393;-78
2021/12/30 08:47:49;;;;;;;;;;;;;;;12.79;43.79;99946.50;4474778;32;34855;-76
2021/12/30 08:50:16;;;;;;;;;;;;;;;12.93;43.56;99952.59;4468105;32;32437;-76
2021/12/30 08:52:45;;;;;;;;;;;;;;;12.82;43.60;99953.47;4473653;32;34136;-77
2021/12/30 08:55:14;;;;;;;;;;;;;;;13.00;43.28;99954.66;4472987;32;35277;-75
2021/12/30 08:57:42;;;;;;;;;;;;;;;12.70;43.79;99957.97;4471154;32;34473;-80
2021/12/30 09:00:30;;;;;;;;;;;;;;;11.62;45.56;99956.56;4471394;32;34465;-75
2021/12/30 09:02:58;;;;;;;;;;;;;;;12.66;43.61;99959.22;4471039;32;34811;-78
2021/12/30 09:05:25;;;;;;;;;;;;;;;11.37;46.23;99958.41;4469467;32;35400;-79
2021/12/30 09:07:53;;;;;;;;;;;;;;;12.66;44.19;99955.69;4474122;32;33986;-80
2021/12/30 09:10:21;;;;;;;;;;;;;;;12.93;42.97;99964.19;4475790;32;33370;-77
2021/12/30 09:12:48;;;;;;;;;;;;;;;12.93;43.12;99963.31;4469310;32;35381;-76
2021/12/30 09:15:18;;;;;;;;;;;;;;;13.27;42.25;99967.69;4471785;32;35430;-77
2021/12/30 09:17:47;;;;;;;;;;;;;;;12.98;43.01;99961.97;4468307;32;34455;-76
2021/12/30 09:20:14;;;;;;;;;;;;;;;13.02;42.99;99952.69;4473285;32;34312;-75
2021/12/30 09:22:42;;;;;;;;;;;;;;;12.93;43.28;99949.91;4469871;32;32835;-76
2021/12/30 09:25:10;;;;;;;;;;;;;;;13.32;42.68;99950.31;4469350;32;34317;-75
2021/12/30 09:27:38;;;;;;;;;;;;;;;13.62;42.14;99945.09;4476723;31;34324;-76
2021/12/30 09:30:07;;;;;;;;;;;;;;;13.85;41.15;99947.66;4465525;32;31904;-75
2021/12/30 09:32:39;;;;;;;;;;;;;;;12.81;43.14;99949.94;4473630;32;34886;-78
2021/12/30 09:35:07;;;;;;;;;;;;;;;13.39;41.76;99949.69;4472504;32;35058;-75
2021/12/30 09:37:34;;;;;;;;;;;;;;;13.13;42.49;99962.56;4469788;31;34279;-76
2021/12/30 09:40:03;;;;;;;;;;;;;;;13.74;41.26;99970.09;4474728;32;33257;-75
2021/12/30 09:42:30;;;;;;;;;;;;;;;13.66;41.69;99977.94;4465142;32;34022;-77
2021/12/30 09:44:58;;;;;;;;;;;;;;;12.99;43.24;99973.59;4470221;32;35021;-76
2021/12/30 09:47:25;;;;;;;;;;;;;;;13.53;41.89;99967.38;4474648;32;32590;-76
2021/12/30 09:49:53;;;;;;;;;;;;;;;13.81;41.00;99981.19;4469902;32;34199;-79
2021/12/30 09:52:21;;;;;;;;;;;;;;;13.55;41.58;99984.22;4470945;32;33841;-78
2021/12/30 09:54:48;;;;;;;;;;;;;;;13.85;41.36;99974.56;4469035;32;34140;-78
2021/12/30 09:57:15;;;;;;;;;;;;;;;13.95;41.14;99980.88;4470884;31;34218;-80
2021/12/30 09:59:43;;;;;;;;;;;;;;;13.86;41.11;99974.41;4475610;32;33293;-81
2021/12/30 10:02:10;;;;;;;;;;;;;;;13.98;41.11;99977.91;4475657;32;34133;-78
2021/12/30 10:04:38;;;;;;;;;;;;;;;13.54;42.07;99974.44;4471588;32;34298;-82
2021/12/30 10:07:17;;;;;;;;;;;;;;;13.10;42.64;99970.87;4477063;32;32869;-81
2021/12/30 10:09:53;;;;;;;;;;;;;;;13.02;42.85;99979.56;4473231;32;32798;-79
2021/12/30 10:12:44;;;;;;;;;;;;;;;12.68;44.03;99975.19;4461610;32;35459;-79
2021/12/30 10:15:12;;;;;;;;;;;;;;;12.46;44.33;99976.91;4470704;32;35253;-79
2021/12/30 10:17:39;;;;;;;;;;;;;;;11.04;48.81;99983.16;4471756;32;34228;-80
2021/12/30 10:20:25;;;;;;;;;;;;;;;12.56;45.07;99971.66;4474832;32;33028;-79
2021/12/30 10:22:53;;;;;;;;;;;;;;;13.13;43.72;99965.25;4471265;32;33801;-79
2021/12/30 10:25:35;;;;;;;;;;;;;;;13.05;43.56;99973.09;4472443;32;34232;-80
2021/12/30 10:28:21;;;;;;;;;;;;;;;12.53;44.34;99977.28;4475632;32;34334;-82
2021/12/30 10:30:50;;;;;;;;;;;;;;;13.20;43.22;99971.00;4471555;32;33411;-84
2021/12/30 10:33:19;;;;;;;;;;;;;;;13.14;43.41;99969.66;4470139;32;33986;-82
2021/12/30 10:35:47;;;;;;;;;;;;;;;13.13;43.22;99969.75;4469915;32;34163;-82
2021/12/30 10:38:15;;;;;;;;;;;;;;;13.46;42.80;99968.88;4469751;32;34036;-83
2021/12/30 10:40:44;;;;;;;;;;;;;;;13.22;43.25;99974.38;4471903;32;32185;-81
2021/12/30 10:43:19;;;;;;;;;;;;;;;13.08;43.54;99978.22;4472707;32;32959;-83
2021/12/30 10:46:07;;;;;;;;;;;;;;;12.68;44.29;99975.19;4473275;32;34303;-83
2021/12/30 10:48:44;;;;;;;;;;;;;;;13.45;43.17;99964.44;4475228;32;34141;-80
2021/12/30 10:51:17;;;;;;;;;;;;;;;13.60;42.72;99965.84;4471828;32;34861;-81
2021/12/30 10:53:45;;;;;;;;;;;;;;;13.48;43.19;99961.50;4475627;32;32783;-80
2021/12/30 10:56:28;;;;;;;;;;;;;;;12.43;45.16;99961.03;4477758;32;34463;-84
2021/12/30 10:59:15;;;;;;;;;;;;;;;13.02;44.11;99955.37;4474180;32;34211;-80
2021/12/30 11:01:44;;;;;;;;;;;;;;;13.42;43.45;99953.97;4478544;32;33530;-82
2021/12/30 11:04:12;;;;;;;;;;;;;;;12.65;45.85;99951.25;4474640;32;33348;-79
2021/12/30 11:06:40;;;;;;;;;;;;;;;12.56;46.14;99945.66;4474578;32;34141;-80
2021/12/30 11:09:08;;;;;;;;;;;;;;;12.85;45.29;99945.16;4456939;32;34257;-78
2021/12/30 11:11:35;;;;;;;;;;;;;;;12.24;46.54;99947.37;4473129;32;34331;-79
2021/12/30 11:14:07;;;;;;;;;;;;;;;12.47;46.31;99949.09;4471911;32;34184;-82
2021/12/30 11:16:50;;;;;;;;;;;;;;;12.86;45.52;99946.84;4476082;32;34196;-79
2021/12/30 11:19:18;;;;;;;;;;;;;;;12.40;46.69;99949.69;4459462;32;34184;-79
2021/12/30 11:21:47;;;;;;;;;;;;;;;12.69;45.85;99944.69;4476546;32;33141;-81
2021/12/30 11:24:15;;;;;;;;;;;;;;;11.87;47.90;99947.53;4469983;32;35123;-81
2021/12/30 11:26:42;;;;;;;;;;;;;;;12.69;46.13;99944.69;4471076;32;34875;-82
2021/12/30 11:29:10;;;;;;;;;;;;;;;12.54;46.55;99947.59;4470970;32;34037;-80
2021/12/30 11:31:37;;;;;;;;;;;;;;;12.19;47.04;99947.72;4464720;32;32004;-80
2021/12/30 11:34:05;;;;;;;;;;;;;;;11.73;47.64;99951.25;4453822;32;33014;-80
2021/12/30 11:36:33;;;;;;;;;;;;;;;12.17;47.39;99952.38;4454859;32;34453;-79
2021/12/30 11:39:03;;;;;;;;;;;;;;;12.45;46.51;99961.75;4472367;32;33079;-80
2021/12/30 11:41:32;;;;;;;;;;;;;;;12.18;47.20;99955.91;4462127;32;32746;-79
2021/12/30 11:43:59;;;;;;;;;;;;;;;12.15;47.51;99956.97;4472891;32;34268;-79
2021/12/30 11:46:43;;;;;;;;;;;;;;;12.73;45.79;99956.88;4449855;32;34046;-83
2021/12/30 11:49:12;;;;;;;;;;;;;;;12.14;47.11;99947.22;4469530;32;34222;-80
2021/12/30 11:51:40;;;;;;;;;;;;;;;12.07;47.53;99943.28;4468475;32;33306;-81
2021/12/30 11:54:26;;;;;;;;;;;;;;;12.48;46.28;99947.25;4469933;32;33990;-82
2021/12/30 11:57:12;;;;;;;;;;;;;;;12.38;46.41;99940.91;4468423;32;33286;-81
2021/12/30 11:59:40;;;;;;;;;;;;;;;12.20;47.21;99941.41;4471106;32;33905;-82
2021/12/30 12:02:26;;;;;;;;;;;;;;;10.66;50.78;99937.78;4463198;32;33095;-83
2021/12/30 12:04:54;;;;;;;;;;;;;;;11.03;50.52;99929.72;4476867;32;34351;-80
2021/12/30 12:07:25;;;;;;;;;;;;;;;10.46;51.72;99928.47;4470838;32;33957;-80
2021/12/30 12:09:52;;;;;;;;;;;;;;;11.25;49.93;99927.16;4463959;32;35160;-82
2021/12/30 12:12:40;;;;;;;;;;;;;;;11.06;50.69;99929.50;4466450;32;32410;-80
2021/12/30 12:15:07;;;;;;;;;;;;;;;10.41;52.39;99942.19;4457095;32;34356;-79
2021/12/30 12:17:36;;;;;;;;;;;;;;;11.32;49.55;99936.44;4478555;32;35266;-81
2021/12/30 12:20:16;;;;;;;;;;;;;;;11.31;49.61;99941.94;4452847;32;35210;-80
2021/12/30 12:22:43;;;;;;;;;;;;;;;11.83;48.20;99946.03;4470108;32;33317;-82
2021/12/30 12:25:22;;;;;;;;;;;;;;;11.61;49.46;99944.97;4460548;32;34278;-84
2021/12/30 12:27:51;;;;;;;;;;;;;;;11.86;48.68;99948.50;4461256;32;33368;-80
2021/12/30 12:30:20;;;;;;;;;;;;;;;11.70;49.04;99954.16;4471447;32;35312;-79
2021/12/30 12:32:48;;;;;;;;;;;;;;;11.82;48.67;99955.91;4471684;32;33463;-80
2021/12/30 12:35:15;;;;;;;;;;;;;;;11.56;48.87;99955.22;4463509;32;32547;-80
2021/12/30 12:37:48;;;;;;;;;;;;;;;11.07;50.73;99948.13;4473428;32;33767;-80
2021/12/30 12:40:16;;;;;;;;;;;;;;;11.60;49.66;99959.38;4471431;32;33989;-82
2021/12/30 12:42:50;;;;;;;;;;;;;;;11.48;50.02;99960.28;4469295;32;34349;-80
2021/12/30 12:45:20;;;;;;;;;;;;;;;11.63;49.57;99955.59;4470921;32;35157;-83
2021/12/30 12:48:08;;;;;;;;;;;;;;;11.98;48.82;99957.44;4477055;32;34189;-81
2021/12/30 12:50:38;;;;;;;;;;;;;;;11.91;49.08;99956.19;4474989;31;32581;-80
2021/12/30 12:53:24;;;;;;;;;;;;;;;12.40;47.89;99955.06;4472081;32;34313;-79
2021/12/30 12:55:56;;;;;;;;;;;;;;;12.44;47.91;99960.06;4470294;32;33516;-81
2021/12/30 12:58:25;;;;;;;;;;;;;;;12.61;47.46;99963.22;4476787;32;32728;-83
2021/12/30 13:00:55;;;;;;;;;;;;;;;12.78;46.76;99963.59;4463735;32;34384;-83